Terminal Aerodrome Forecast
Issued by NWS

Home | Current Version | Previous Version | Text Only | Print | Product List | Glossary On
Versions: 1 2 3 4 5 6 7 8 9 10 11 12 13 14 15 16 17 18 19 20 21 22 23 24 25 26 27 28 29 30 31 32 33 34 35 36 37
000
FTAK31 PAFA 272133 AAB
TAFAOM
TAF AMD
PAOM 272133Z 2722/2818 08020G27KT P6SM SCT030 OVC045
      TEMPO 2722/2801 3SM -SHSN BR BKN025
     FM280100 09018G25KT 2SM -SN BR OVC015
     FM280800 10015KT 4SM -SN BR OVC020=

USA.gov is the U.S. government's official web portal to all federal, state and local government web resources and services.